Latest Weather Observations for Katanning RS

IDW60801

Issued at 11:03 am WST Tuesday 30 August 2016 (issued every 30 minutes, with the page automatically refreshed every 10 minutes)

About weather observations | Map of weather stations | Latest weather observations for WA | Other Formats
Station Details ID: 010916 Name: KATANNING Lat: -33.69 Lon: 117.61 Height: 320.0 m
Data from the previous 72 hours. | See also: Recent months at Katanning RS
Date/Time
WST
Temp
°C
App
Temp
°C
Dew
Point
°C
Rel
Hum
%
Delta-T
°C
Wind Press
QNH
hPa
Press
MSL
hPa
Rain since
9am
mm
Dir  Spd
km/h
Gust
km/h
Spd
kts
Gust
kts
30/11:00am 10.2 5.7 4.1 66 2.7 NW 17 22 9 12 1016.9 1017.0 0.0
30/10:30am 10.0 5.9 4.2 67 2.6 NW 15 22 8 12 1017.1 1017.2 0.0
30/10:00am 9.1 5.2 3.5 68 2.5 W 13 20 7 11 1017.2 1017.3 0.0
30/09:30am 9.8 5.6 4.0 67 2.6 NW 15 20 8 11 1017.3 1017.4 0.0
30/09:00am 9.4 5.7 4.2 70 2.3 NNW 13 20 7 11 1017.4 1017.5 0.0
30/08:30am 9.1 5.7 3.9 70 2.3 NW 11 19 6 10 1017.3 1017.4 0.0
30/08:00am 8.4 5.7 2.8 68 2.4 WNW 6 9 3 5 1017.3 1017.4 0.0
30/07:30am 7.4 4.8 3.1 74 1.8 WNW 6 9 3 5 1017.2 1017.3 0.0
30/07:00am 7.0 4.4 3.1 76 1.7 WNW 6 9 3 5 1017.1 1017.2 0.0
30/06:30am 6.9 4.2 2.6 74 1.8 WNW 6 7 3 4 1017.0 1017.1 0.0
30/06:00am 7.1 4.2 2.6 73 1.9 WNW 7 15 4 8 1016.8 1016.9 0.0
30/05:30am 7.3 4.4 2.8 73 1.9 WNW 7 11 4 6 1016.7 1016.8 0.0
30/05:00am 7.6 4.8 3.1 73 1.9 W 7 11 4 6 1016.5 1016.6 0.0
30/04:30am 7.7 4.9 3.0 72 2.0 W 7 13 4 7 1016.3 1016.4 0.0
30/04:00am 7.6 5.0 3.1 73 1.9 W 6 9 3 5 1016.1 1016.2 0.0
30/03:30am 7.5 5.3 3.2 74 1.9 WSW 4 9 2 5 1016.2 1016.3 0.0
30/03:00am 7.7 5.5 3.6 75 1.8 WSW 4 6 2 3 1016.2 1016.3 0.0
30/02:30am 7.3 5.9 3.5 77 1.6 CALM 0 7 0 4 1016.4 1016.5 0.0
30/02:00am 7.7 6.3 3.4 74 1.9 CALM 0 0 0 0 1016.6 1016.7 0.0
30/01:30am 7.7 6.2 3.0 72 2.0 CALM 0 6 0 3 1016.8 1016.9 0.0
30/01:00am 7.7 5.1 3.2 73 1.9 SW 6 11 3 6 1016.9 1017.0 0.0
30/12:30am 7.7 5.0 2.8 71 2.1 SSW 6 9 3 5 1017.0 1017.1 0.0
30/12:00am 7.8 4.5 2.7 70 2.2 SSW 9 15 5 8 1017.2 1017.3 0.0
 
Date/Time
WST
Temp
°C
App
Temp
°C
Dew
Point
°C
Rel
Hum
%
Delta-T
°C
Wind Press
QNH
hPa
Press
MSL
hPa
Rain since
9am
mm
Dir  Spd
km/h
Gust
km/h
Spd
kts
Gust
kts
29/11:30pm 7.9 4.7 3.0 71 2.1 SSW 9 13 5 7 1017.2 1017.3 0.0
29/11:00pm 8.2 4.6 2.9 69 2.3 SSW 11 17 6 9 1017.2 1017.3 0.0
29/10:30pm 8.3 5.2 3.4 71 2.1 WSW 9 17 5 9 1017.3 1017.4 0.0
29/10:00pm 8.3 5.5 3.4 71 2.1 SW 7 13 4 7 1017.1 1017.2 0.0
29/09:30pm 8.5 5.4 3.6 71 2.2 SW 9 13 5 7 1017.2 1017.3 0.0
29/09:00pm 8.5 5.4 3.6 71 2.1 WSW 9 13 5 7 1017.0 1017.1 0.0
29/08:30pm 8.8 5.7 3.8 71 2.2 WSW 9 13 5 7 1016.9 1017.0 0.0
29/08:00pm 9.0 6.0 4.0 71 2.2 SW 9 15 5 8 1016.5 1016.6 0.0
29/07:30pm 9.5 6.1 4.1 69 2.4 SW 11 17 6 9 1016.1 1016.2 0.0
29/07:00pm 9.9 7.0 4.7 70 2.4 SW 9 13 5 7 1016.2 1016.3 0.0
29/06:30pm 9.9 7.2 5.7 75 2.0 SW 9 15 5 8 1015.9 1016.0 0.0
29/06:00pm 10.3 7.3 6.1 75 2.0 SW 11 15 6 8 1015.7 1015.8 0.0
29/05:30pm 10.5 7.1 6.1 74 2.1 SW 13 19 7 10 1015.3 1015.5 0.0
29/05:00pm 10.6 6.5 6.2 74 2.1 SW 17 24 9 13 1015.0 1015.1 0.0
29/04:30pm 11.2 6.6 6.7 74 2.2 SW 20 30 11 16 1014.8 1014.9 0.0
29/04:00pm 11.3 7.8 7.4 77 1.9 WSW 15 20 8 11 1014.6 1014.7 0.0
29/03:30pm 11.6 7.2 6.7 72 2.4 SW 19 28 10 15 1014.3 1014.4 0.0
29/03:00pm 11.0 7.1 7.3 78 1.8 SW 17 24 9 13 1014.2 1014.3 0.0
29/02:30pm 13.4 10.4 9.1 75 2.2 WSW 15 22 8 12 1014.0 1014.1 0.0
29/02:00pm 12.3 8.4 7.2 71 2.5 SW 17 26 9 14 1013.9 1014.0 0.0
29/01:30pm 11.6 7.1 6.9 73 2.3 SSW 20 30 11 16 1014.2 1014.3 0.0
29/01:00pm 12.3 8.1 7.4 72 2.4 SW 19 24 10 13 1014.2 1014.3 0.0
29/12:30pm 12.5 8.7 7.4 71 2.5 SW 17 26 9 14 1014.4 1014.5 0.0
29/12:00pm 11.6 7.1 6.9 73 2.3 SW 20 30 11 16 1014.7 1014.8 0.0
29/11:30am 11.8 7.3 7.1 73 2.3 SW 20 30 11 16 1014.8 1014.9 0.0
29/11:00am 11.1 6.7 7.4 78 1.8 SSW 20 28 11 15 1015.1 1015.2 0.0
29/10:30am 11.1 6.8 7.8 80 1.6 SSW 20 26 11 14 1015.1 1015.2 0.0
29/10:00am 10.1 6.4 8.0 87 1.0 SSW 17 24 9 13 1015.2 1015.3 0.0
29/09:30am 10.0 5.8 7.4 84 1.3 SSW 19 26 10 14 1014.9 1015.0 0.0
29/09:00am 9.5 6.1 7.6 88 0.9 SSW 15 20 8 11 1014.8 1014.9 1.2
29/08:30am 9.9 6.9 7.7 86 1.1 SSW 13 20 7 11 1014.6 1014.7 1.0
29/08:00am 9.1 5.5 6.9 86 1.0 SSW 15 20 8 11 1014.5 1014.6 1.0
29/07:30am 8.8 5.7 7.1 89 0.8 SSW 13 22 7 12 1014.2 1014.3 1.0
29/07:00am 8.6 5.0 6.9 89 0.8 SSW 15 22 8 12 1014.0 1014.1 1.0
29/06:30am 8.5 5.2 6.6 88 0.9 SSW 13 20 7 11 1013.4 1013.5 1.0
29/06:00am 8.7 4.7 6.5 86 1.0 SSW 17 28 9 15 1013.3 1013.4 1.0
29/05:30am 8.7 5.0 6.5 86 1.0 SSW 15 24 8 13 1013.1 1013.2 1.0
29/05:00am 8.5 4.4 6.1 85 1.1 SSW 17 28 9 15 1012.8 1012.9 1.0
29/04:30am 9.1 4.5 6.4 83 1.3 SSW 20 26 11 14 1012.5 1012.5 1.0
29/04:00am 9.0 4.5 6.8 86 1.0 SSW 20 30 11 16 1012.4 1012.4 1.0
29/03:30am 9.1 5.1 6.7 85 1.1 SSW 17 24 9 13 1012.0 1012.1 1.0
29/03:00am 9.1 4.5 6.5 84 1.2 SSW 20 32 11 17 1012.0 1012.1 1.0
29/02:30am 9.0 5.4 6.8 86 1.0 SSW 15 22 8 12 1012.1 1012.2 1.0
29/02:00am 9.2 5.3 7.2 87 1.0 SSW 17 26 9 14 1012.1 1012.2 1.0
29/01:30am 8.9 5.7 7.0 88 0.9 SSW 13 19 7 10 1012.1 1012.2 1.0
29/01:00am 8.9 5.0 7.0 88 0.9 SSW 17 24 9 13 1012.2 1012.3 1.0
29/12:30am 8.8 6.0 6.9 88 0.9 SSW 11 19 6 10 1012.1 1012.2 1.0
29/12:00am 8.8 6.0 6.9 88 0.9 SSW 11 19 6 10 1012.1 1012.2 1.0
 
Date/Time
WST
Temp
°C
App
Temp
°C
Dew
Point
°C
Rel
Hum
%
Delta-T
°C
Wind Press
QNH
hPa
Press
MSL
hPa
Rain since
9am
mm
Dir  Spd
km/h
Gust
km/h
Spd
kts
Gust
kts
28/11:30pm 8.7 5.5 6.8 88 0.9 SSW 13 19 7 10 1012.0 1012.1 1.0
28/11:00pm 8.6 5.7 6.6 87 0.9 SSW 11 17 6 9 1012.0 1012.1 1.0
28/10:30pm 9.2 6.1 7.2 87 1.0 S 13 19 7 10 1012.0 1012.1 1.0
28/10:00pm 9.9 6.2 8.0 88 0.9 S 17 26 9 14 1011.9 1012.0 1.0
28/09:30pm 10.1 6.9 8.4 89 0.8 S 15 24 8 13 1011.7 1011.8 1.0
28/09:00pm 10.0 6.8 8.3 89 0.8 SSW 15 20 8 11 1011.5 1011.6 0.8
28/08:30pm 9.8 7.3 8.1 89 0.8 SSW 11 20 6 11 1011.2 1011.3 0.8
28/08:00pm 10.0 7.5 8.1 88 0.9 SSW 11 19 6 10 1011.0 1011.1 0.8
28/07:30pm 10.1 6.8 8.2 88 0.9 SSW 15 20 8 11 1010.6 1010.7 0.8
28/07:00pm 10.2 7.3 8.1 87 1.0 SSW 13 17 7 9 1010.3 1010.4 0.8
28/06:30pm 10.4 6.7 8.0 85 1.2 SSW 17 28 9 15 1010.1 1010.2 0.6
28/06:00pm 10.3 6.6 8.1 86 1.1 SSW 17 30 9 16 1009.8 1009.8 0.6
28/05:30pm 10.5 6.8 7.9 84 1.3 SSW 17 28 9 15 1009.4 1009.4 0.6
28/05:00pm 10.8 6.5 8.0 83 1.4 SSW 20 39 11 21 1008.9 1009.0 0.6
28/04:30pm 12.3 8.1 7.4 72 2.4 S 19 32 10 17 1008.3 1008.4 0.4
28/04:00pm 12.8 8.6 8.1 73 2.4 SSW 20 30 11 16 1008.0 1008.1 0.4
28/03:30pm 12.1 7.2 6.8 70 2.6 S 22 33 12 18 1007.5 1007.6 0.4
28/03:00pm 11.2 6.9 7.7 79 1.7 S 20 30 11 16 1007.3 1007.3 0.4
28/02:30pm 13.3 9.8 10.1 81 1.7 S 19 28 10 15 1006.9 1006.9 0.4
28/02:00pm 11.2 7.2 8.4 83 1.4 SSW 19 28 10 15 1006.8 1006.8 0.2
28/01:30pm 11.8 7.9 9.5 86 1.2 SW 20 30 11 16 1006.6 1006.6 0.2
28/01:00pm 11.4 6.6 9.0 85 1.2 SW 24 35 13 19 1006.6 1006.6 0.0
28/12:30pm 11.4 5.3 8.4 82 1.5 SW 30 39 16 21 1006.3 1006.3 0.0
28/12:00pm 11.2 5.9 8.4 83 1.4 SW 26 41 14 22 1006.4 1006.4 0.0
28/11:30am 11.1 5.4 8.3 83 1.4 SW 28 41 15 22 1006.5 1006.5 0.0
28/11:00am 11.3 6.5 8.7 84 1.3 SW 24 39 13 21 1006.5 1006.5 0.0
28/10:30am 10.7 5.8 8.6 87 1.1 SW 24 33 13 18 1006.4 1006.4 0.0
28/10:00am 10.1 5.1 8.2 88 0.9 SW 24 37 13 20 1006.2 1006.2 0.0
28/09:30am 10.1 4.2 7.7 85 1.2 SW 28 41 15 22 1006.0 1006.0 0.0
28/09:00am 9.8 4.7 7.6 86 1.1 SW 24 37 13 20 1005.6 1005.7 10.0
28/08:30am 9.5 3.6 7.6 88 0.9 SW 28 37 15 20 1005.2 1005.3 10.0
28/08:00am 9.3 4.5 7.4 88 0.9 SW 22 35 12 19 1004.8 1004.9 10.0
28/07:30am 9.0 4.2 7.3 89 0.8 SW 22 30 12 16 1004.1 1004.1 9.8
28/07:00am 8.8 3.9 7.1 89 0.8 SW 22 32 12 17 1003.6 1003.6 9.6
28/06:30am 8.8 2.4 7.1 89 0.8 SW 30 44 16 24 1003.0 1003.0 9.4
28/06:03am 8.5 2.4 6.8 89 0.8 WSW 28 48 15 26 1002.2 1002.3 9.2
28/06:00am 8.5 2.9 7.0 90 0.7 WSW 26 39 14 21 1002.2 1002.3 9.2
28/05:30am 8.2 1.4 6.7 90 0.7 WSW 32 46 17 25 1001.6 1001.6 9.0
28/05:00am 8.0 1.9 6.5 90 0.7 W 28 43 15 23 1001.3 1001.3 8.8
28/04:30am 8.0 1.8 6.3 89 0.8 W 28 39 15 21 1001.4 1001.4 8.6
28/04:00am 8.0 2.6 6.3 89 0.8 W 24 39 13 21 1001.4 1001.4 8.6
28/03:30am 8.0 2.5 6.1 88 0.9 WSW 24 37 13 20 1001.5 1001.5 8.6
28/03:00am 8.0 2.5 6.1 88 0.9 WSW 24 37 13 20 1001.4 1001.4 8.4
28/02:30am 8.2 3.2 6.3 88 0.9 WSW 22 37 12 20 1001.4 1001.4 8.4
28/02:00am 8.5 3.5 6.5 87 0.9 WSW 22 33 12 18 1001.3 1001.3 8.4
28/01:30am 8.8 2.6 6.3 84 1.2 SW 28 39 15 21 1001.3 1001.3 8.4
28/01:00am 8.8 2.3 6.6 86 1.0 WSW 30 41 16 22 1001.1 1001.1 8.4
28/12:30am 9.0 4.6 7.3 89 0.8 WSW 20 30 11 16 1000.9 1000.9 8.4
28/12:00am 9.0 4.8 7.5 90 0.7 W 19 26 10 14 1000.6 1000.6 8.2
 
Date/Time
WST
Temp
°C
App
Temp
°C
Dew
Point
°C
Rel
Hum
%
Delta-T
°C
Wind Press
QNH
hPa
Press
MSL
hPa
Rain since
9am
mm
Dir  Spd
km/h
Gust
km/h
Spd
kts
Gust
kts
27/11:30pm 8.9 4.6 7.2 89 0.8 W 19 28 10 15 1000.3 1000.3 7.6
27/11:00pm 8.9 4.1 7.2 89 0.8 W 22 28 12 15 1000.2 1000.2 6.8
27/10:30pm 8.8 3.6 7.1 89 0.8 W 24 32 13 17 1000.0 1000.0 6.6
27/10:00pm 8.8 3.1 6.9 88 0.9 W 26 35 14 19 999.9 999.9 6.4
27/09:30pm 9.0 3.3 6.6 85 1.1 W 26 39 14 21 999.6 999.6 6.2
27/09:00pm 9.1 3.0 6.5 84 1.2 W 28 44 15 24 999.4 999.3 5.8
27/08:30pm 9.2 3.6 7.0 86 1.1 W 26 39 14 21 998.8 998.8 5.8
27/08:00pm 9.4 2.2 7.5 88 0.9 W 35 54 19 29 998.3 998.3 5.6
27/07:41pm 9.4 3.1 7.5 88 0.9 W 30 50 16 27 997.9 997.9 5.4
27/07:30pm 9.6 3.4 7.7 88 0.9 W 30 44 16 24 997.7 997.7 5.2
27/07:00pm 9.7 3.8 7.6 87 1.0 WNW 28 43 15 23 997.3 997.3 5.0
27/06:30pm 10.1 4.2 7.5 84 1.3 WNW 28 41 15 22 997.0 997.0 4.8
27/06:00pm 10.3 5.3 7.9 85 1.2 WNW 24 37 13 20 996.6 996.5 4.8
27/05:30pm 10.3 5.6 7.9 85 1.2 WNW 22 32 12 17 996.4 996.3 4.6
27/05:00pm 10.1 4.7 7.9 86 1.1 NW 26 35 14 19 996.5 996.4 4.4
27/04:30pm 10.8 5.0 7.9 82 1.4 NW 28 48 15 26 996.3 996.2 4.2
27/04:01pm 10.8 4.1 7.5 80 1.6 NW 32 52 17 28 996.4 996.3 4.2
27/04:00pm 10.8 4.1 7.3 79 1.7 NW 32 46 17 25 996.4 996.3 4.2
27/03:31pm 11.9 5.5 6.8 71 2.5 NW 30 50 16 27 996.2 996.1 4.2
27/03:30pm 12.0 6.0 6.9 71 2.5 NW 28 41 15 22 996.2 996.1 4.2
27/03:08pm 12.5 6.4 6.8 68 2.8 WNW 28 46 15 25 996.2 996.1 4.2
27/03:00pm 12.5 6.0 6.5 67 2.9 WNW 30 43 16 23 996.2 996.1 4.2
27/02:30pm 12.6 5.4 6.0 64 3.2 WNW 33 50 18 27 996.2 996.1 4.2
27/02:19pm 13.3 6.4 6.6 64 3.3 WNW 32 50 17 27 996.2 996.1 4.2
27/02:00pm 13.6 7.2 6.9 64 3.3 WNW 30 48 16 26 996.3 996.2 4.2
27/01:37pm 13.3 6.9 8.6 73 2.4 WNW 32 50 17 27 996.5 996.4 4.2
27/01:30pm 12.7 6.3 8.4 75 2.2 WNW 32 50 17 27 996.7 996.6 4.2
27/01:29pm 12.5 6.1 8.4 76 2.1 WNW 32 50 17 27 996.7 996.6 4.2
27/01:00pm 12.9 8.5 10.3 84 1.4 NW 24 32 13 17 996.9 996.9 4.2
27/12:30pm 10.9 7.0 8.5 85 1.2 WNW 19 30 10 16 997.9 997.9 4.0
27/12:00pm 11.1 7.5 8.5 84 1.3 NW 17 24 9 13 998.0 998.0 2.2
27/11:30am 11.0 7.4 8.4 84 1.3 NW 17 26 9 14 998.4 998.4 0.6

Other Formats:

Comma delimited format used in spreadsheet applications
http://www.bom.gov.au/fwo/IDW60801/IDW60801.94641.axf

JavaScript Object Notation format (JSON) in row-major order
http://www.bom.gov.au/fwo/IDW60801/IDW60801.94641.json